sensor_id;sensor_type;location;lat;lon;timestamp;P1;durP1;ratioP1;P2;durP2;ratioP2
69795;SDS011;57073;45.650;9.612;2023-04-19T00:02:43;12.52;;;6.60;;
69795;SDS011;57073;45.650;9.612;2023-04-19T00:07:43;10.70;;;5.50;;
69795;SDS011;57073;45.650;9.612;2023-04-19T00:12:43;10.57;;;6.17;;
69795;SDS011;57073;45.650;9.612;2023-04-19T00:17:44;11.87;;;5.90;;
69795;SDS011;57073;45.650;9.612;2023-04-19T00:22:45;11.17;;;6.00;;
69795;SDS011;57073;45.650;9.612;2023-04-19T00:27:45;10.17;;;5.33;;
69795;SDS011;57073;45.650;9.612;2023-04-19T00:32:45;11.50;;;5.70;;
69795;SDS011;57073;45.650;9.612;2023-04-19T00:37:46;11.63;;;5.83;;
69795;SDS011;57073;45.650;9.612;2023-04-19T00:42:46;9.23;;;5.30;;
69795;SDS011;57073;45.650;9.612;2023-04-19T00:47:46;10.67;;;5.60;;
69795;SDS011;57073;45.650;9.612;2023-04-19T00:52:47;10.03;;;5.37;;
69795;SDS011;57073;45.650;9.612;2023-04-19T00:57:47;10.13;;;5.10;;
69795;SDS011;57073;45.650;9.612;2023-04-19T01:02:47;8.30;;;4.67;;
69795;SDS011;57073;45.650;9.612;2023-04-19T01:07:48;8.70;;;5.00;;
69795;SDS011;57073;45.650;9.612;2023-04-19T01:12:48;10.43;;;5.57;;
69795;SDS011;57073;45.650;9.612;2023-04-19T01:17:49;8.33;;;4.60;;
69795;SDS011;57073;45.650;9.612;2023-04-19T01:22:49;8.30;;;5.00;;
69795;SDS011;57073;45.650;9.612;2023-04-19T01:27:49;8.43;;;4.77;;
69795;SDS011;57073;45.650;9.612;2023-04-19T01:32:50;8.57;;;4.70;;
69795;SDS011;57073;45.650;9.612;2023-04-19T01:37:50;8.57;;;4.23;;
69795;SDS011;57073;45.650;9.612;2023-04-19T01:42:54;9.00;;;4.30;;
69795;SDS011;57073;45.650;9.612;2023-04-19T01:47:54;7.30;;;4.13;;
69795;SDS011;57073;45.650;9.612;2023-04-19T01:52:55;9.33;;;4.70;;
69795;SDS011;57073;45.650;9.612;2023-04-19T01:57:56;8.43;;;4.57;;
69795;SDS011;57073;45.650;9.612;2023-04-19T02:02:56;8.03;;;4.27;;
69795;SDS011;57073;45.650;9.612;2023-04-19T02:07:57;7.17;;;4.27;;
69795;SDS011;57073;45.650;9.612;2023-04-19T02:12:57;9.23;;;4.50;;
69795;SDS011;57073;45.650;9.612;2023-04-19T02:17:57;7.30;;;3.87;;
69795;SDS011;57073;45.650;9.612;2023-04-19T02:22:59;5.90;;;3.70;;
69795;SDS011;57073;45.650;9.612;2023-04-19T02:27:59;6.20;;;3.50;;
69795;SDS011;57073;45.650;9.612;2023-04-19T02:32:59;6.80;;;3.70;;
69795;SDS011;57073;45.650;9.612;2023-04-19T02:38:01;8.37;;;4.33;;
69795;SDS011;57073;45.650;9.612;2023-04-19T02:43:02;6.93;;;3.77;;
69795;SDS011;57073;45.650;9.612;2023-04-19T02:48:03;7.15;;;3.50;;
69795;SDS011;57073;45.650;9.612;2023-04-19T02:53:04;5.75;;;3.53;;
69795;SDS011;57073;45.650;9.612;2023-04-19T02:58:04;6.70;;;3.53;;
69795;SDS011;57073;45.650;9.612;2023-04-19T03:03:05;7.03;;;3.80;;
69795;SDS011;57073;45.650;9.612;2023-04-19T03:08:06;4.90;;;3.47;;
69795;SDS011;57073;45.650;9.612;2023-04-19T03:13:06;5.50;;;3.47;;
69795;SDS011;57073;45.650;9.612;2023-04-19T03:18:07;8.97;;;3.60;;
69795;SDS011;57073;45.650;9.612;2023-04-19T03:23:07;8.63;;;3.87;;
69795;SDS011;57073;45.650;9.612;2023-04-19T03:28:07;9.57;;;4.10;;
69795;SDS011;57073;45.650;9.612;2023-04-19T03:33:08;6.70;;;3.80;;
69795;SDS011;57073;45.650;9.612;2023-04-19T03:38:08;6.47;;;3.60;;
69795;SDS011;57073;45.650;9.612;2023-04-19T03:43:08;6.00;;;3.60;;
69795;SDS011;57073;45.650;9.612;2023-04-19T03:48:09;7.43;;;3.53;;
69795;SDS011;57073;45.650;9.612;2023-04-19T03:53:09;6.50;;;3.43;;
69795;SDS011;57073;45.650;9.612;2023-04-19T03:58:09;6.73;;;3.50;;
69795;SDS011;57073;45.650;9.612;2023-04-19T04:03:10;8.73;;;3.53;;
69795;SDS011;57073;45.650;9.612;2023-04-19T04:08:10;6.17;;;3.60;;
69795;SDS011;57073;45.650;9.612;2023-04-19T04:13:12;11.95;;;4.20;;
69795;SDS011;57073;45.650;9.612;2023-04-19T04:18:13;6.60;;;3.70;;
69795;SDS011;57073;45.650;9.612;2023-04-19T04:23:13;9.63;;;3.83;;
69795;SDS011;57073;45.650;9.612;2023-04-19T04:28:13;6.07;;;3.70;;
69795;SDS011;57073;45.650;9.612;2023-04-19T04:33:14;9.03;;;3.80;;
69795;SDS011;57073;45.650;9.612;2023-04-19T04:38:15;9.07;;;4.03;;
69795;SDS011;57073;45.650;9.612;2023-04-19T04:43:15;5.87;;;3.90;;
69795;SDS011;57073;45.650;9.612;2023-04-19T04:48:15;5.13;;;3.30;;
69795;SDS011;57073;45.650;9.612;2023-04-19T04:53:16;8.18;;;3.67;;
69795;SDS011;57073;45.650;9.612;2023-04-19T04:58:16;6.20;;;3.40;;
69795;SDS011;57073;45.650;9.612;2023-04-19T05:03:17;6.88;;;3.80;;
69795;SDS011;57073;45.650;9.612;2023-04-19T05:08:17;7.13;;;3.60;;
69795;SDS011;57073;45.650;9.612;2023-04-19T05:13:17;9.20;;;4.27;;
69795;SDS011;57073;45.650;9.612;2023-04-19T05:18:18;8.27;;;4.10;;
69795;SDS011;57073;45.650;9.612;2023-04-19T05:23:18;7.37;;;4.13;;
69795;SDS011;57073;45.650;9.612;2023-04-19T05:28:19;11.23;;;4.30;;
69795;SDS011;57073;45.650;9.612;2023-04-19T05:33:19;11.95;;;4.15;;
69795;SDS011;57073;45.650;9.612;2023-04-19T05:38:19;12.03;;;4.50;;
69795;SDS011;57073;45.650;9.612;2023-04-19T05:43:20;7.53;;;4.30;;
69795;SDS011;57073;45.650;9.612;2023-04-19T05:48:20;9.73;;;4.60;;
69795;SDS011;57073;45.650;9.612;2023-04-19T05:53:21;7.82;;;4.22;;
69795;SDS011;57073;45.650;9.612;2023-04-19T05:58:21;11.83;;;4.60;;
69795;SDS011;57073;45.650;9.612;2023-04-19T06:03:22;11.40;;;4.70;;
69795;SDS011;57073;45.650;9.612;2023-04-19T06:08:22;11.50;;;5.47;;
69795;SDS011;57073;45.650;9.612;2023-04-19T06:13:22;12.17;;;5.00;;
69795;SDS011;57073;45.650;9.612;2023-04-19T06:18:23;8.27;;;4.97;;
69795;SDS011;57073;45.650;9.612;2023-04-19T06:23:23;7.40;;;4.57;;
69795;SDS011;57073;45.650;9.612;2023-04-19T06:28:24;8.65;;;4.93;;
69795;SDS011;57073;45.650;9.612;2023-04-19T06:33:25;9.30;;;4.93;;
69795;SDS011;57073;45.650;9.612;2023-04-19T06:38:25;12.20;;;4.90;;
69795;SDS011;57073;45.650;9.612;2023-04-19T06:43:25;9.53;;;5.77;;
69795;SDS011;57073;45.650;9.612;2023-04-19T06:48:26;10.33;;;6.07;;
69795;SDS011;57073;45.650;9.612;2023-04-19T06:53:27;15.70;;;6.45;;
69795;SDS011;57073;45.650;9.612;2023-04-19T06:58:27;11.83;;;6.47;;
69795;SDS011;57073;45.650;9.612;2023-04-19T07:03:28;12.07;;;6.43;;
69795;SDS011;57073;45.650;9.612;2023-04-19T07:08:28;11.57;;;5.67;;
69795;SDS011;57073;45.650;9.612;2023-04-19T07:13:28;9.63;;;5.00;;
69795;SDS011;57073;45.650;9.612;2023-04-19T07:18:29;10.00;;;5.70;;
69795;SDS011;57073;45.650;9.612;2023-04-19T07:23:29;12.33;;;5.57;;
69795;SDS011;57073;45.650;9.612;2023-04-19T07:28:30;10.05;;;5.43;;
69795;SDS011;57073;45.650;9.612;2023-04-19T07:33:31;11.10;;;5.10;;
69795;SDS011;57073;45.650;9.612;2023-04-19T07:38:31;7.53;;;4.17;;
69795;SDS011;57073;45.650;9.612;2023-04-19T07:43:31;10.97;;;5.10;;
69795;SDS011;57073;45.650;9.612;2023-04-19T07:48:32;8.70;;;4.57;;
69795;SDS011;57073;45.650;9.612;2023-04-19T07:53:32;6.33;;;3.80;;
69795;SDS011;57073;45.650;9.612;2023-04-19T07:58:33;7.85;;;4.55;;
69795;SDS011;57073;45.650;9.612;2023-04-19T08:03:34;12.18;;;4.88;;
69795;SDS011;57073;45.650;9.612;2023-04-19T08:08:35;6.60;;;4.37;;
69795;SDS011;57073;45.650;9.612;2023-04-19T08:13:36;7.20;;;4.97;;
69795;SDS011;57073;45.650;9.612;2023-04-19T08:18:36;8.60;;;4.77;;
69795;SDS011;57073;45.650;9.612;2023-04-19T08:23:36;7.67;;;4.80;;
69795;SDS011;57073;45.650;9.612;2023-04-19T08:28:37;8.70;;;5.27;;
69795;SDS011;57073;45.650;9.612;2023-04-19T08:33:37;7.77;;;5.13;;
69795;SDS011;57073;45.650;9.612;2023-04-19T08:38:37;8.93;;;5.40;;
69795;SDS011;57073;45.650;9.612;2023-04-19T08:43:38;9.60;;;5.70;;
69795;SDS011;57073;45.650;9.612;2023-04-19T08:48:42;9.57;;;4.75;;
69795;SDS011;57073;45.650;9.612;2023-04-19T08:53:44;6.90;;;4.77;;
69795;SDS011;57073;45.650;9.612;2023-04-19T08:58:45;6.75;;;4.85;;
69795;SDS011;57073;45.650;9.612;2023-04-19T09:03:45;6.40;;;4.13;;
69795;SDS011;57073;45.650;9.612;2023-04-19T09:08:46;6.47;;;4.70;;
69795;SDS011;57073;45.650;9.612;2023-04-19T09:13:47;8.53;;;4.70;;
69795;SDS011;57073;45.650;9.612;2023-04-19T09:18:54;7.83;;;4.67;;
69795;SDS011;57073;45.650;9.612;2023-04-19T09:23:56;7.40;;;4.90;;
69795;SDS011;57073;45.650;9.612;2023-04-19T09:34:13;5.13;;;3.93;;
69795;SDS011;57073;45.650;9.612;2023-04-19T09:39:27;10.45;;;4.00;;
69795;SDS011;57073;45.650;9.612;2023-04-19T09:44:35;6.07;;;3.90;;
69795;SDS011;57073;45.650;9.612;2023-04-19T09:49:35;6.47;;;3.90;;
69795;SDS011;57073;45.650;9.612;2023-04-19T09:54:35;9.70;;;4.63;;
69795;SDS011;57073;45.650;9.612;2023-04-19T09:59:36;6.17;;;4.10;;
69795;SDS011;57073;45.650;9.612;2023-04-19T10:04:37;7.60;;;4.50;;
69795;SDS011;57073;45.650;9.612;2023-04-19T10:09:38;7.45;;;4.20;;
69795;SDS011;57073;45.650;9.612;2023-04-19T10:14:39;6.73;;;4.33;;
69795;SDS011;57073;45.650;9.612;2023-04-19T10:19:39;7.13;;;4.47;;
69795;SDS011;57073;45.650;9.612;2023-04-19T10:25:06;7.80;;;4.57;;
69795;SDS011;57073;45.650;9.612;2023-04-19T10:30:16;6.78;;;4.10;;
69795;SDS011;57073;45.650;9.612;2023-04-19T10:45:51;7.35;;;5.15;;
69795;SDS011;57073;45.650;9.612;2023-04-19T10:51:02;11.07;;;5.73;;
69795;SDS011;57073;45.650;9.612;2023-04-19T10:56:06;9.48;;;6.00;;
69795;SDS011;57073;45.650;9.612;2023-04-19T11:06:33;8.67;;;5.53;;
69795;SDS011;57073;45.650;9.612;2023-04-19T11:11:34;8.17;;;5.27;;
69795;SDS011;57073;45.650;9.612;2023-04-19T11:16:35;9.20;;;5.63;;
69795;SDS011;57073;45.650;9.612;2023-04-19T11:21:39;8.73;;;5.20;;
69795;SDS011;57073;45.650;9.612;2023-04-19T11:26:41;6.27;;;4.67;;
69795;SDS011;57073;45.650;9.612;2023-04-19T11:31:44;8.33;;;4.60;;
69795;SDS011;57073;45.650;9.612;2023-04-19T11:36:51;8.50;;;4.68;;
69795;SDS011;57073;45.650;9.612;2023-04-19T11:41:52;6.82;;;4.50;;
69795;SDS011;57073;45.650;9.612;2023-04-19T11:46:59;8.67;;;4.80;;
69795;SDS011;57073;45.650;9.612;2023-04-19T11:52:02;6.60;;;4.60;;
69795;SDS011;57073;45.650;9.612;2023-04-19T11:57:05;9.82;;;4.90;;
69795;SDS011;57073;45.650;9.612;2023-04-19T12:02:09;6.07;;;4.28;;
69795;SDS011;57073;45.650;9.612;2023-04-19T12:07:11;10.10;;;4.60;;
69795;SDS011;57073;45.650;9.612;2023-04-19T12:12:11;6.63;;;4.20;;
69795;SDS011;57073;45.650;9.612;2023-04-19T12:17:12;11.47;;;5.80;;
69795;SDS011;57073;45.650;9.612;2023-04-19T12:22:15;7.00;;;4.68;;
69795;SDS011;57073;45.650;9.612;2023-04-19T12:27:18;7.70;;;5.05;;
69795;SDS011;57073;45.650;9.612;2023-04-19T12:32:19;8.87;;;5.33;;
69795;SDS011;57073;45.650;9.612;2023-04-19T12:37:19;9.17;;;5.40;;
69795;SDS011;57073;45.650;9.612;2023-04-19T12:42:19;9.13;;;5.87;;
69795;SDS011;57073;45.650;9.612;2023-04-19T12:47:20;6.00;;;4.37;;
69795;SDS011;57073;45.650;9.612;2023-04-19T12:52:21;7.25;;;5.10;;
69795;SDS011;57073;45.650;9.612;2023-04-19T12:57:22;8.67;;;5.10;;
69795;SDS011;57073;45.650;9.612;2023-04-19T13:02:22;8.77;;;4.73;;
69795;SDS011;57073;45.650;9.612;2023-04-19T13:07:22;9.93;;;5.33;;
69795;SDS011;57073;45.650;9.612;2023-04-19T13:12:23;9.17;;;6.33;;
69795;SDS011;57073;45.650;9.612;2023-04-19T13:17:23;10.17;;;6.57;;
69795;SDS011;57073;45.650;9.612;2023-04-19T13:22:23;9.77;;;5.30;;
69795;SDS011;57073;45.650;9.612;2023-04-19T13:27:24;9.47;;;6.17;;
69795;SDS011;57073;45.650;9.612;2023-04-19T13:32:24;7.87;;;5.60;;
69795;SDS011;57073;45.650;9.612;2023-04-19T13:37:25;9.87;;;6.60;;
69795;SDS011;57073;45.650;9.612;2023-04-19T13:42:25;8.50;;;5.43;;
69795;SDS011;57073;45.650;9.612;2023-04-19T13:47:25;11.17;;;6.53;;
69795;SDS011;57073;45.650;9.612;2023-04-19T13:52:25;9.07;;;6.13;;
69795;SDS011;57073;45.650;9.612;2023-04-19T13:57:26;8.50;;;5.90;;
69795;SDS011;57073;45.650;9.612;2023-04-19T14:02:26;10.37;;;6.50;;
69795;SDS011;57073;45.650;9.612;2023-04-19T14:07:27;11.33;;;7.00;;
69795;SDS011;57073;45.650;9.612;2023-04-19T14:12:27;9.37;;;6.23;;
69795;SDS011;57073;45.650;9.612;2023-04-19T14:17:28;8.75;;;5.32;;
69795;SDS011;57073;45.650;9.612;2023-04-19T14:22:28;10.27;;;6.27;;
69795;SDS011;57073;45.650;9.612;2023-04-19T14:27:28;10.90;;;7.00;;
69795;SDS011;57073;45.650;9.612;2023-04-19T14:32:29;10.33;;;6.10;;
69795;SDS011;57073;45.650;9.612;2023-04-19T14:37:29;10.83;;;6.40;;
69795;SDS011;57073;45.650;9.612;2023-04-19T14:42:30;10.17;;;6.47;;
69795;SDS011;57073;45.650;9.612;2023-04-19T14:47:30;8.30;;;6.10;;
69795;SDS011;57073;45.650;9.612;2023-04-19T14:52:30;12.60;;;6.23;;
69795;SDS011;57073;45.650;9.612;2023-04-19T14:57:31;12.27;;;7.23;;
69795;SDS011;57073;45.650;9.612;2023-04-19T15:02:31;11.40;;;6.97;;
69795;SDS011;57073;45.650;9.612;2023-04-19T15:07:31;13.17;;;7.63;;
69795;SDS011;57073;45.650;9.612;2023-04-19T15:12:32;11.93;;;6.77;;
69795;SDS011;57073;45.650;9.612;2023-04-19T15:17:32;13.47;;;6.93;;
69795;SDS011;57073;45.650;9.612;2023-04-19T15:22:33;10.77;;;6.43;;
69795;SDS011;57073;45.650;9.612;2023-04-19T15:27:33;11.40;;;6.97;;
69795;SDS011;57073;45.650;9.612;2023-04-19T15:32:33;14.77;;;7.50;;
69795;SDS011;57073;45.650;9.612;2023-04-19T15:37:35;11.02;;;7.03;;
69795;SDS011;57073;45.650;9.612;2023-04-19T15:42:37;12.02;;;7.20;;
69795;SDS011;57073;45.650;9.612;2023-04-19T15:47:37;9.90;;;6.23;;
69795;SDS011;57073;45.650;9.612;2023-04-19T15:52:38;10.07;;;6.40;;
69795;SDS011;57073;45.650;9.612;2023-04-19T15:57:38;11.27;;;6.97;;
69795;SDS011;57073;45.650;9.612;2023-04-19T16:02:38;10.50;;;6.17;;
69795;SDS011;57073;45.650;9.612;2023-04-19T16:07:41;14.17;;;8.40;;
69795;SDS011;57073;45.650;9.612;2023-04-19T16:12:42;12.70;;;8.10;;
69795;SDS011;57073;45.650;9.612;2023-04-19T16:17:43;12.23;;;7.27;;
69795;SDS011;57073;45.650;9.612;2023-04-19T16:22:43;13.93;;;8.38;;
69795;SDS011;57073;45.650;9.612;2023-04-19T16:27:44;13.70;;;8.53;;
69795;SDS011;57073;45.650;9.612;2023-04-19T16:32:45;14.20;;;7.78;;
69795;SDS011;57073;45.650;9.612;2023-04-19T16:37:46;17.15;;;8.95;;
69795;SDS011;57073;45.650;9.612;2023-04-19T16:42:46;12.93;;;7.87;;
69795;SDS011;57073;45.650;9.612;2023-04-19T16:47:46;13.80;;;8.23;;
69795;SDS011;57073;45.650;9.612;2023-04-19T16:52:47;14.10;;;7.47;;
69795;SDS011;57073;45.650;9.612;2023-04-19T16:57:47;13.43;;;8.27;;
69795;SDS011;57073;45.650;9.612;2023-04-19T17:02:48;5.57;;;3.13;;
69795;SDS011;57073;45.650;9.612;2023-04-19T17:07:49;4.63;;;2.40;;
69795;SDS011;57073;45.650;9.612;2023-04-19T17:12:49;7.27;;;2.77;;
69795;SDS011;57073;45.650;9.612;2023-04-19T17:17:50;4.13;;;2.60;;
69795;SDS011;57073;45.650;9.612;2023-04-19T17:22:50;7.28;;;3.17;;
69795;SDS011;57073;45.650;9.612;2023-04-19T17:27:50;6.90;;;2.40;;
69795;SDS011;57073;45.650;9.612;2023-04-19T17:32:51;3.53;;;1.90;;
69795;SDS011;57073;45.650;9.612;2023-04-19T17:37:51;3.70;;;1.40;;
69795;SDS011;57073;45.650;9.612;2023-04-19T17:42:52;1.83;;;0.80;;
69795;SDS011;57073;45.650;9.612;2023-04-19T17:47:52;3.80;;;0.60;;
69795;SDS011;57073;45.650;9.612;2023-04-19T17:52:53;1.75;;;0.70;;
69795;SDS011;57073;45.650;9.612;2023-04-19T17:57:54;3.47;;;0.70;;
69795;SDS011;57073;45.650;9.612;2023-04-19T18:02:54;2.60;;;0.80;;
69795;SDS011;57073;45.650;9.612;2023-04-19T18:07:55;2.10;;;0.77;;
69795;SDS011;57073;45.650;9.612;2023-04-19T18:12:55;2.93;;;1.20;;
69795;SDS011;57073;45.650;9.612;2023-04-19T18:17:55;2.03;;;1.00;;
69795;SDS011;57073;45.650;9.612;2023-04-19T18:22:56;2.43;;;1.20;;
69795;SDS011;57073;45.650;9.612;2023-04-19T18:27:58;4.33;;;1.70;;
69795;SDS011;57073;45.650;9.612;2023-04-19T18:32:59;4.25;;;2.58;;
69795;SDS011;57073;45.650;9.612;2023-04-19T18:37:59;6.43;;;2.70;;
69795;SDS011;57073;45.650;9.612;2023-04-19T18:43:00;6.60;;;3.20;;
69795;SDS011;57073;45.650;9.612;2023-04-19T18:48:01;5.47;;;3.13;;
69795;SDS011;57073;45.650;9.612;2023-04-19T18:53:01;7.77;;;4.30;;
69795;SDS011;57073;45.650;9.612;2023-04-19T18:58:02;6.93;;;3.70;;
69795;SDS011;57073;45.650;9.612;2023-04-19T19:03:02;7.17;;;4.50;;
69795;SDS011;57073;45.650;9.612;2023-04-19T19:08:03;7.80;;;4.50;;
69795;SDS011;57073;45.650;9.612;2023-04-19T19:13:03;8.03;;;4.43;;
69795;SDS011;57073;45.650;9.612;2023-04-19T19:18:04;13.07;;;5.30;;
69795;SDS011;57073;45.650;9.612;2023-04-19T19:23:05;10.20;;;5.80;;
69795;SDS011;57073;45.650;9.612;2023-04-19T19:28:05;10.27;;;5.33;;
69795;SDS011;57073;45.650;9.612;2023-04-19T19:33:06;7.25;;;4.65;;
69795;SDS011;57073;45.650;9.612;2023-04-19T19:38:07;12.43;;;5.17;;
69795;SDS011;57073;45.650;9.612;2023-04-19T19:43:08;7.18;;;4.00;;
69795;SDS011;57073;45.650;9.612;2023-04-19T19:48:09;6.37;;;3.47;;
69795;SDS011;57073;45.650;9.612;2023-04-19T19:53:09;6.67;;;3.90;;
69795;SDS011;57073;45.650;9.612;2023-04-19T19:58:10;6.00;;;3.28;;
69795;SDS011;57073;45.650;9.612;2023-04-19T20:03:11;5.53;;;2.60;;
69795;SDS011;57073;45.650;9.612;2023-04-19T20:08:12;4.70;;;2.60;;
69795;SDS011;57073;45.650;9.612;2023-04-19T20:13:13;3.22;;;2.22;;
69795;SDS011;57073;45.650;9.612;2023-04-19T20:18:14;3.83;;;2.00;;
69795;SDS011;57073;45.650;9.612;2023-04-19T20:23:17;2.60;;;1.70;;
69795;SDS011;57073;45.650;9.612;2023-04-19T20:28:19;3.15;;;2.20;;
69795;SDS011;57073;45.650;9.612;2023-04-19T20:33:19;3.47;;;2.17;;
69795;SDS011;57073;45.650;9.612;2023-04-19T20:38:21;3.30;;;2.17;;
69795;SDS011;57073;45.650;9.612;2023-04-19T20:43:26;4.07;;;2.30;;
69795;SDS011;57073;45.650;9.612;2023-04-19T20:48:26;3.30;;;2.20;;
69795;SDS011;57073;45.650;9.612;2023-04-19T20:53:27;6.03;;;3.50;;
69795;SDS011;57073;45.650;9.612;2023-04-19T20:58:27;5.55;;;3.90;;
69795;SDS011;57073;45.650;9.612;2023-04-19T21:03:28;8.48;;;3.85;;
69795;SDS011;57073;45.650;9.612;2023-04-19T21:08:28;6.20;;;3.75;;
69795;SDS011;57073;45.650;9.612;2023-04-19T21:13:29;5.50;;;3.30;;
69795;SDS011;57073;45.650;9.612;2023-04-19T21:18:30;4.87;;;2.40;;
69795;SDS011;57073;45.650;9.612;2023-04-19T21:23:30;5.40;;;2.57;;
69795;SDS011;57073;45.650;9.612;2023-04-19T21:28:32;3.73;;;2.63;;
69795;SDS011;57073;45.650;9.612;2023-04-19T21:33:33;5.78;;;2.65;;
69795;SDS011;57073;45.650;9.612;2023-04-19T21:38:34;6.30;;;2.90;;
69795;SDS011;57073;45.650;9.612;2023-04-19T21:43:35;4.67;;;3.23;;
69795;SDS011;57073;45.650;9.612;2023-04-19T21:48:35;5.57;;;3.30;;
69795;SDS011;57073;45.650;9.612;2023-04-19T21:53:35;5.40;;;3.27;;
69795;SDS011;57073;45.650;9.612;2023-04-19T21:58:36;4.70;;;3.00;;
69795;SDS011;57073;45.650;9.612;2023-04-19T22:03:36;5.90;;;3.72;;
69795;SDS011;57073;45.650;9.612;2023-04-19T22:08:38;6.03;;;3.80;;
69795;SDS011;57073;45.650;9.612;2023-04-19T22:13:38;5.50;;;3.07;;
69795;SDS011;57073;45.650;9.612;2023-04-19T22:18:38;5.30;;;3.40;;
69795;SDS011;57073;45.650;9.612;2023-04-19T22:23:40;5.37;;;3.40;;
69795;SDS011;57073;45.650;9.612;2023-04-19T22:28:40;6.05;;;3.30;;
69795;SDS011;57073;45.650;9.612;2023-04-19T22:33:41;4.97;;;3.10;;
69795;SDS011;57073;45.650;9.612;2023-04-19T22:38:41;4.53;;;3.13;;
69795;SDS011;57073;45.650;9.612;2023-04-19T22:43:42;6.77;;;3.50;;
69795;SDS011;57073;45.650;9.612;2023-04-19T22:48:42;8.33;;;3.33;;
69795;SDS011;57073;45.650;9.612;2023-04-19T22:53:43;5.73;;;3.30;;
69795;SDS011;57073;45.650;9.612;2023-04-19T22:58:43;6.30;;;3.37;;
69795;SDS011;57073;45.650;9.612;2023-04-19T23:03:43;4.97;;;3.47;;
69795;SDS011;57073;45.650;9.612;2023-04-19T23:08:44;6.90;;;4.47;;
69795;SDS011;57073;45.650;9.612;2023-04-19T23:13:44;7.37;;;4.90;;
69795;SDS011;57073;45.650;9.612;2023-04-19T23:18:46;9.10;;;5.28;;
69795;SDS011;57073;45.650;9.612;2023-04-19T23:23:46;8.47;;;5.90;;
69795;SDS011;57073;45.650;9.612;2023-04-19T23:28:46;7.33;;;5.20;;
69795;SDS011;57073;45.650;9.612;2023-04-19T23:33:47;9.53;;;5.07;;
69795;SDS011;57073;45.650;9.612;2023-04-19T23:38:48;7.57;;;4.53;;
69795;SDS011;57073;45.650;9.612;2023-04-19T23:43:48;4.77;;;3.33;;
69795;SDS011;57073;45.650;9.612;2023-04-19T23:48:48;4.53;;;3.33;;
69795;SDS011;57073;45.650;9.612;2023-04-19T23:53:48;4.87;;;3.20;;
69795;SDS011;57073;45.650;9.612;2023-04-19T23:58:49;5.70;;;3.30;;
